Tegucigalpa, Honduras

7:01 AM CST en Marzo 26, 2017 (GMT -0600)
Toncontin International | | Change Station

Alt 3261 ft 14.05 °N, 87.22 °W | Updated 1 minute ago

Mostly Cloudy
Muy nublado
66 ° F
Sensación térmica 66 ° F
N
5
Viento Variable Viento desde NE

Hoy
Alta -- | Baja -- ° F
--% Posibilidad de precipitaciones
Ayer
Alta -- | Baja -- ° F
Precip. -- pul
Presión 30.09 pul
Visibilidad 6.2 Millas
Nubes Muy nublado 2800 ft
Punto de rocío 59 ° F
Humedad 78%
Precipitaciones 0.00 pul
Espesor de la nieve No disponible.
5:48 AM 6:00 PM
Creciente menguante, 3% visible
METAR MHTG 261300Z 04004KT 9999 BKN028 19/15 Q1019 A3009 NOSIG
Presión 30.09 pul
Visibilidad 6.2 Millas
Nubes Muy nublado 2800 ft
Punto de rocío 59 ° F
Humedad 78%
Precipitaciones 0.00 pul
Espesor de la nieve No disponible.
5:48 AM 6:00 PM
Creciente menguante, 3% visible
METAR MHTG 261300Z 04004KT 9999 BKN028 19/15 Q1019 A3009 NOSIG

Get Severe Weather Alerts

Thanks for signing up!

Be on the lookout for a verification email in your inbox.

You'll start receiving the daily forecast at 8 AM.

×

10-Day Weather Forecast

No radar image for this location.
×

Almanac

Astronomía

Mar. 26, 2017 Salida Puesta
Hora real
Crepúsculo civil
Crepúsculo náutico
Crepúsculo astronómico
Luna
Horas de luz
Horas de luz
Tomorrow will be .
, % of the Moon is Illuminated

Extremos de hoy

Máximos del país Bajas del país

Community

WunderPhotos

Upload Photos

1,962,540 ¡fotos cargadas!

WunderBlog® & News

Nearby

Calidad del aire

  Calidad del aire Índice AQ Contaminante
Not available.

Grosos de nieve

Estación Profundido Altura

Actividad de terremotos

Ciudad Distance Mag. Tiempo y dato
Magnitud mínima muestra es 2,5.

Actividad de terremotos

Ciudad Distance Mag. Tiempo y dato
Magnitud mínima muestra es 2,5.

Temperaturas de aguas costeras

Lugar Temperatura

Stations

Estaciones meteorológicas cercanas

Ubicación de la estación Temp. Vientos helados Punto de rocío Humedad Viento Precip. Alt Actualizado Tipo